Ellsworth, Iowa
Current Conditions -  °F | °C
As of 8:15 AM on Monday 26 Jan 2015 (Local Time) from KEBS Reporting Station
Overcast Overcast  
Wind Chill: 23°   Ceiling: 10000
Heat Index: 34°   Visibility: 10mi
Dew Point: 34°   Wind: 18mph
Humidity: 100%   Direction: 230°SW
Pressure: 29.73"   Gusts: 29mph
Location:  42.31°N, 93.58°W
Report Text: KEBS 261415Z AUTO 23016G25KT 10SM OVC100 01/01 A2973 RMK AO2
Loading
Personal Weather Stations






























Interactive Weather Map New forecast layout! Learn more

10-Day Weather Forecast

Advertisements
Track Severe Weather on mobile